• Join FlightAware (Why Join?)
  • Login
  • US Flag 
02:38AM EDT


 

Airport Tracker/Info


-or-


 

Live Flight TrackerFlight Track Log ✈ UCA596 ✈ 08-Sep-2013 ✈ KIAD - KBGM

Flight Track Log - Related Links

Times and Time Zones

All times are in EDT time to prevent confusion due to time zone crossing. See the UCA596 flight status page for this flight to view local times or setup timezone preferences in your user account.

Time Position Orientation Groundspeed Altitude Reporting Facility
EDT Latitude Longitude Course Direction KTS MPH feet Rate Location/Type
02:05PM 38.9500 -77.5167 345° North 142 163 1,700  Level Potomac TRACON
02:06PM 39.0000 -77.5333 345° North 177 204 2,900 1,320 Climbing Potomac TRACON
02:07PM 39.0333 -77.5667 322° Northwest 177 204 4,400 1,440 Climbing Potomac TRACON
02:08PM 39.0833 -77.5833 345° North 178 205 5,900 1,320 Climbing Potomac TRACON
02:10PM 39.1694 -77.6236 340° North 176 203 8,500 1,200 Climbing Washington Center
02:11PM 39.2197 -77.6064 15° North 171 197 9,700 1,140 Climbing Washington Center
02:12PM 39.2700 -77.5861 17° North 179 206 10,800 1,320 Climbing Washington Center
02:13PM 39.3203 -77.5689 15° North 184 212 12,300 1,260 Climbing Washington Center
02:14PM 39.3686 -77.5514 16° North 184 212 13,400 1,020 Climbing Washington Center
02:15PM 39.4208 -77.5339 15° North 184 212 14,400 1,020 Climbing Washington Center
02:16PM 39.4711 -77.5164 15° North 184 212 15,500 1,020 Climbing Washington Center
02:17PM 39.5236 -77.4964 16° North 184 212 16,500 900 Climbing Washington Center
02:19PM 39.6489 -77.4528 15° North 190 219 18,500 720 Climbing New York Center
02:20PM 39.7094 -77.4531 360° North 190 219 19,000 240 Climbing New York Center
02:21PM 39.7681 -77.4506 North 212 244 19,000  Level New York Center
02:22PM 39.8389 -77.4492 North 233 268 19,000  Level New York Center
02:23PM 39.9014 -77.4497 360° North 238 274 19,000  Level New York Center
02:24PM 39.9786 -77.4517 359° North 238 274 19,000  Level New York Center
02:25PM 40.0403 -77.4303 15° North 238 274 19,000  Level New York Center
02:26PM 40.1153 -77.3942 20° North 252 290 19,000  Level New York Center
02:27PM 40.1753 -77.3644 21° North 257 296 19,000  Level New York Center
02:28PM 40.2503 -77.3281 20° North 257 296 19,000  Level New York Center
02:29PM 40.3103 -77.2983 21° North 257 296 19,000  Level New York Center
02:30PM 40.3831 -77.2617 21° North 257 296 19,000 -60 Level New York Center
02:31PM 40.4431 -77.2319 21° North 257 296 18,900 -600 Descending New York Center
02:32PM 40.5203 -77.1928 21° North 257 296 17,900 -960 Descending New York Center
02:33PM 40.5889 -77.1608 19° North 273 314 17,000 -480 Descending New York Center
02:34PM 40.6575 -77.1233 23° Northeast 273 314 17,000  Level New York Center
02:35PM 40.7303 -77.0864 21° North 273 314 17,000  Level New York Center
02:36PM 40.7989 -77.0542 20° North 260 299 17,000  Level New York Center
02:37PM 40.8631 -77.0217 21° North 255 293 17,000  Level New York Center
02:38PM 40.9294 -76.9867 22° Northeast 250 288 17,000  Level New York Center
02:39PM 40.9914 -76.9564 20° North 250 288 17,000  Level New York Center
02:40PM 41.0558 -76.9211 22° Northeast 250 288 17,000 -120 Level New York Center
02:41PM 41.1222 -76.8886 20° North 245 282 16,800 -600 Descending New York Center
02:42PM 41.1883 -76.8558 20° North 245 282 15,800 -1,020 Descending New York Center
02:43PM 41.2614 -76.8156 23° Northeast 256 295 14,800 -1,020 Descending New York Center
02:44PM 41.3339 -76.7778 21° North 266 306 13,800 -960 Descending New York Center
02:45PM 41.4011 -76.7286 29° Northeast 271 312 12,900 -480 Descending New York Center
02:46PM 41.4639 -76.6786 31° Northeast 271 312 12,900  Level New York Center
02:47PM 41.5247 -76.6314 30° Northeast 257 296 12,900  Level New York Center
02:48PM 41.5789 -76.5889 30° Northeast 252 290 12,900 -60 Level New York Center
02:49PM 41.6394 -76.5414 30° Northeast 252 290 12,800 -660 Descending New York Center
02:50PM 41.7089 -76.4864 31° Northeast 259 298 11,600 -1,020 Descending New York Center
02:51PM 41.7606 -76.4492 28° Northeast 259 298 10,800 -960 Descending New York Center
02:52PM 41.8283 -76.3797 37° Northeast 259 298 9,700 -1,380 Descending New York Center
02:53PM 41.8856 -76.3178 39° Northeast 264 304 8,100 -1,500 Descending New York Center
02:54PM 41.9381 -76.2636 37° Northeast 252 290 6,700 -1,440 Descending New York Center
02:55PM 41.9903 -76.2092 38° Northeast 221 254 5,300 -1,200 Descending New York Center
02:56PM 42.0364 -76.1572 40° Northeast 210 242 4,300 -660 Descending New York Center
02:57PM 42.0758 -76.1183 36° Northeast 210 242 4,000 -420 Descending New York Center
02:58PM 42.1114 -76.0628 49° Northeast 198 228 3,500 -480 Descending New York Center
02:59PM 42.1328 -76.0028 64° Northeast 185 213 3,100 -540 Descending New York Center
03:00PM 42.1539 -75.9542 60° Northeast 169 194 2,500 -480 Descending New York Center
03:01PM 42.1900 -75.9347 22° Northeast 158 182 2,200 3,240 Descending New York Center
03:02PM 42.2164 -75.9031 42° Northeast 158 182 9,000 3,360 Climbing New York Center
03:03PM 42.2447 -75.8689 42° Northeast 158 182 9,000  Level New York Center
03:04PM 42.2711 -75.8372 42° Northeast 158 182 9,000  Level New York Center
03:06PM 42.2213 -75.9280 233° Southwest  Level FlightAware Approximate